createdAt,value
2019-05-18T00:01:32.363Z,33.83
2019-05-18T00:04:01.154Z,32.40
2019-05-18T00:06:29.949Z,32.03
2019-05-18T00:08:58.822Z,30.53
2019-05-18T00:11:27.599Z,34.30
2019-05-18T00:13:56.619Z,34.17
2019-05-18T00:16:25.433Z,33.57
2019-05-18T00:18:54.228Z,35.13
2019-05-18T00:21:23.068Z,35.40
2019-05-18T00:23:51.957Z,33.23
2019-05-18T00:26:20.870Z,34.23
2019-05-18T00:28:49.730Z,35.03
2019-05-18T00:31:18.748Z,36.47
2019-05-18T00:33:47.740Z,36.23
2019-05-18T00:36:16.515Z,38.40
2019-05-18T00:38:45.521Z,37.20
2019-05-18T00:41:14.403Z,37.87
2019-05-18T00:43:43.184Z,37.13
2019-05-18T00:46:12.071Z,37.40
2019-05-18T00:48:40.873Z,37.80
2019-05-18T00:51:09.771Z,36.50
2019-05-18T00:53:38.762Z,35.07
2019-05-18T00:56:07.550Z,35.93
2019-05-18T00:58:36.547Z,34.30
2019-05-18T01:01:06.066Z,35.73
2019-05-18T01:03:34.937Z,34.43
2019-05-18T01:06:03.691Z,31.97
2019-05-18T01:08:32.514Z,30.80
2019-05-18T01:11:01.505Z,32.93
2019-05-18T01:13:30.395Z,35.73
2019-05-18T01:15:59.388Z,33.77
2019-05-18T01:18:28.155Z,34.93
2019-05-18T01:20:58.785Z,33.47
2019-05-18T01:23:27.608Z,33.07
2019-05-18T01:25:56.486Z,36.00
2019-05-18T01:28:25.355Z,35.33
2019-05-18T01:30:54.244Z,34.70
2019-05-18T01:33:23.034Z,35.13
2019-05-18T01:35:51.801Z,36.47
2019-05-18T01:38:20.714Z,35.17
2019-05-18T01:40:49.833Z,36.33
2019-05-18T01:43:18.718Z,37.03
2019-05-18T01:45:47.517Z,36.17
2019-05-18T01:48:16.476Z,37.53
2019-05-18T01:50:45.250Z,35.90
2019-05-18T01:53:14.279Z,36.20
2019-05-18T01:55:43.070Z,36.53
2019-05-18T01:58:11.938Z,34.87
2019-05-18T02:00:40.950Z,33.33
2019-05-18T02:03:09.828Z,33.17
2019-05-18T02:05:38.720Z,32.77
2019-05-18T02:08:07.569Z,32.13
2019-05-18T02:10:36.513Z,31.90
2019-05-18T02:13:05.276Z,33.53
2019-05-18T02:15:34.192Z,34.47
2019-05-18T02:18:03.067Z,34.50
2019-05-18T02:20:32.075Z,38.60
2019-05-18T02:23:01.065Z,38.27
2019-05-18T02:25:29.862Z,36.17
2019-05-18T02:27:58.840Z,36.67
2019-05-18T02:30:27.745Z,33.97
2019-05-18T02:32:56.525Z,35.00
2019-05-18T02:35:25.518Z,37.60
2019-05-18T02:37:56.257Z,36.30
2019-05-18T02:40:25.010Z,36.80
2019-05-18T02:42:53.910Z,36.50
2019-05-18T02:45:22.925Z,36.43
2019-05-18T02:47:51.916Z,37.07
2019-05-18T02:50:21.018Z,36.33
2019-05-18T02:52:50.002Z,38.50
2019-05-18T02:55:19.098Z,37.87
2019-05-18T02:57:47.886Z,40.27
2019-05-18T03:00:16.777Z,37.53
2019-05-18T03:02:45.769Z,37.37
2019-05-18T03:05:15.071Z,35.17
2019-05-18T03:07:44.166Z,36.27
2019-05-18T03:10:13.568Z,36.27
2019-05-18T03:12:42.441Z,35.20
2019-05-18T03:15:11.534Z,35.03
2019-05-18T03:17:40.365Z,34.67
2019-05-18T03:20:10.440Z,35.97
2019-05-18T03:22:39.219Z,35.27
2019-05-18T03:25:08.523Z,35.30
2019-05-18T03:27:37.548Z,34.97
2019-05-18T03:30:07.840Z,33.03
2019-05-18T03:32:36.755Z,33.47
2019-05-18T03:35:05.927Z,32.67
2019-05-18T03:37:34.744Z,30.43
2019-05-18T03:40:04.934Z,33.10
2019-05-18T03:42:33.958Z,33.37
2019-05-18T03:45:02.704Z,33.47
2019-05-18T03:47:31.610Z,34.43
2019-05-18T03:50:00.501Z,34.17
2019-05-18T03:52:29.400Z,33.83
2019-05-18T03:54:58.408Z,34.63
2019-05-18T03:57:27.400Z,31.77
2019-05-18T03:59:56.161Z,31.33
2019-05-18T04:02:25.017Z,33.93
2019-05-18T04:04:53.969Z,34.50
2019-05-18T04:07:22.837Z,33.13
2019-05-18T04:09:51.751Z,32.77
2019-05-18T04:12:20.740Z,33.93
2019-05-18T04:14:49.630Z,33.13
2019-05-18T04:17:18.502Z,34.97
2019-05-18T04:19:47.719Z,34.17
2019-05-18T04:22:16.591Z,32.57
2019-05-18T04:24:45.485Z,33.73
2019-05-18T04:27:16.948Z,34.00
2019-05-18T04:29:45.839Z,31.37
2019-05-18T04:32:14.831Z,32.97
2019-05-18T04:34:43.700Z,33.20
2019-05-18T04:37:12.510Z,32.63
2019-05-18T04:39:41.375Z,34.93
2019-05-18T04:42:10.391Z,32.87
2019-05-18T04:44:39.260Z,31.80
2019-05-18T04:47:08.277Z,31.47
2019-05-18T04:49:37.039Z,32.33
2019-05-18T04:52:06.058Z,30.50
2019-05-18T04:54:35.153Z,31.23
2019-05-18T04:57:04.020Z,31.37
2019-05-18T04:59:32.791Z,30.90
2019-05-18T05:02:02.052Z,29.53
2019-05-18T05:04:30.917Z,32.10
2019-05-18T05:06:59.807Z,29.93
2019-05-18T05:09:28.818Z,33.63
2019-05-18T05:11:57.588Z,34.13
2019-05-18T05:14:26.376Z,35.50
2019-05-18T05:16:55.245Z,34.70
2019-05-18T05:19:24.032Z,33.67
2019-05-18T05:21:52.944Z,33.53
2019-05-18T05:24:21.917Z,34.63
2019-05-18T05:26:50.837Z,32.30
2019-05-18T05:29:19.717Z,32.37
2019-05-18T05:31:48.817Z,32.17
2019-05-18T05:34:17.590Z,32.73
2019-05-18T05:36:46.391Z,31.87
2019-05-18T05:39:15.486Z,32.63
2019-05-18T05:41:44.252Z,32.27
2019-05-18T05:44:13.066Z,32.00
2019-05-18T05:46:42.052Z,31.37
2019-05-18T05:49:10.813Z,34.97
2019-05-18T05:51:39.584Z,33.23
2019-05-18T05:54:08.622Z,31.13
2019-05-18T05:56:37.514Z,32.10
2019-05-18T05:59:06.396Z,32.70
2019-05-18T06:01:35.395Z,34.37
2019-05-18T06:04:04.260Z,31.77
2019-05-18T06:06:33.153Z,33.23
2019-05-18T06:09:02.005Z,33.47
2019-05-18T06:11:30.854Z,33.70
2019-05-18T06:13:59.720Z,33.30
2019-05-18T06:16:28.740Z,30.93
2019-05-18T06:18:57.603Z,33.03
2019-05-18T06:21:26.392Z,44.37
2019-05-18T06:23:55.407Z,36.20
2019-05-18T06:26:24.371Z,34.47
2019-05-18T06:28:53.498Z,37.07
2019-05-18T06:31:23.216Z,34.80
2019-05-18T06:33:52.301Z,36.77
2019-05-18T06:36:21.073Z,36.77
2019-05-18T06:38:49.980Z,41.60
2019-05-18T06:41:18.970Z,38.53
2019-05-18T06:43:47.963Z,39.87
2019-05-18T06:46:16.955Z,40.50
2019-05-18T06:48:45.715Z,39.37
2019-05-18T06:51:14.508Z,39.33
2019-05-18T06:53:43.399Z,38.93
2019-05-18T06:56:13.891Z,38.83
2019-05-18T06:58:43.147Z,38.53
2019-05-18T07:01:12.039Z,38.57
2019-05-18T07:03:40.929Z,38.73
2019-05-18T07:06:09.763Z,38.67
2019-05-18T07:08:38.688Z,38.40
2019-05-18T07:11:07.600Z,39.90
2019-05-18T07:13:36.389Z,37.87
2019-05-18T07:16:06.199Z,37.93
2019-05-18T07:18:35.197Z,38.50
2019-05-18T07:21:04.189Z,38.57
2019-05-18T07:23:32.980Z,38.87
2019-05-18T07:26:01.868Z,39.63
2019-05-18T07:28:30.734Z,39.97
2019-05-18T07:30:59.625Z,41.57
2019-05-18T07:33:28.407Z,42.37
2019-05-18T07:35:57.189Z,40.13
2019-05-18T07:38:26.027Z,39.93
2019-05-18T07:40:54.898Z,41.43
2019-05-18T07:43:23.768Z,40.93
2019-05-18T07:45:52.764Z,42.20
2019-05-18T07:48:21.774Z,42.27
2019-05-18T07:50:50.563Z,39.70
2019-05-18T07:53:19.559Z,37.43
2019-05-18T07:55:48.555Z,39.20
2019-05-18T07:58:17.309Z,40.60
2019-05-18T08:00:46.236Z,37.27
2019-05-18T08:03:15.227Z,35.67
2019-05-18T08:05:44.117Z,42.67
2019-05-18T08:08:13.008Z,42.70
2019-05-18T08:10:43.643Z,37.07
2019-05-18T08:13:12.296Z,37.73
2019-05-18T08:15:41.310Z,39.43
2019-05-18T08:18:10.299Z,35.63
2019-05-18T08:20:39.274Z,37.77
2019-05-18T08:23:08.286Z,38.10
2019-05-18T08:25:37.284Z,39.67
2019-05-18T08:28:06.175Z,38.37
2019-05-18T08:30:35.065Z,40.77
2019-05-18T08:33:04.059Z,37.50
2019-05-18T08:35:32.923Z,42.87
2019-05-18T08:38:01.785Z,39.03
2019-05-18T08:40:31.547Z,36.07
2019-05-18T08:43:00.546Z,36.57
2019-05-18T08:45:29.632Z,37.73
2019-05-18T08:47:58.628Z,39.00
2019-05-18T08:50:27.519Z,36.93
2019-05-18T08:52:56.490Z,38.30
2019-05-18T08:55:25.402Z,35.10
2019-05-18T08:57:54.495Z,35.90
2019-05-18T09:00:23.387Z,35.17
2019-05-18T09:02:52.379Z,36.77
2019-05-18T09:05:21.272Z,35.73
2019-05-18T09:07:50.241Z,33.60
2019-05-18T09:10:19.108Z,37.83
2019-05-18T09:12:47.882Z,32.63
2019-05-18T09:15:16.908Z,32.73
2019-05-18T09:17:45.806Z,35.17
2019-05-18T09:20:14.915Z,36.03
2019-05-18T09:22:43.910Z,37.80
2019-05-18T09:25:12.876Z,30.93
2019-05-18T09:27:41.764Z,35.23
2019-05-18T09:30:11.327Z,36.37
2019-05-18T09:32:40.187Z,34.57
2019-05-18T09:35:09.679Z,35.83
2019-05-18T09:37:38.588Z,32.90
2019-05-18T09:40:08.915Z,32.63
2019-05-18T09:42:37.673Z,34.27
2019-05-18T09:45:07.687Z,34.60
2019-05-18T09:47:36.703Z,33.97
2019-05-18T09:50:08.974Z,35.50
2019-05-18T09:52:46.188Z,33.40
2019-05-18T09:55:11.670Z,33.70
2019-05-18T09:57:40.643Z,41.73
2019-05-18T10:00:11.548Z,36.70
2019-05-18T10:02:40.386Z,36.73
2019-05-18T10:05:09.562Z,36.73
2019-05-18T10:07:38.678Z,39.13
2019-05-18T10:10:09.615Z,38.43
2019-05-18T10:12:38.804Z,37.00
2019-05-18T10:15:09.659Z,39.03
2019-05-18T10:17:38.652Z,37.83
2019-05-18T10:20:08.236Z,38.13
2019-05-18T10:22:37.126Z,38.17
2019-05-18T10:25:07.670Z,39.10
2019-05-18T10:27:36.661Z,36.80
2019-05-18T10:30:10.338Z,43.17
2019-05-18T10:32:39.113Z,40.67
2019-05-18T10:35:08.293Z,39.80
2019-05-18T10:37:37.249Z,38.10
2019-05-18T10:40:10.041Z,37.23
2019-05-18T10:42:38.911Z,38.67
2019-05-18T10:45:08.579Z,34.97
2019-05-18T10:47:37.409Z,36.90
2019-05-18T10:50:09.356Z,38.20
2019-05-18T10:52:38.569Z,38.23
2019-05-18T10:55:09.199Z,37.07
2019-05-18T10:57:38.092Z,38.47
2019-05-18T11:00:08.116Z,37.33
2019-05-18T11:02:37.034Z,36.97
2019-05-18T11:05:07.834Z,38.07
2019-05-18T11:07:36.725Z,38.70
2019-05-18T11:10:07.355Z,40.00
2019-05-18T11:12:36.123Z,40.37
2019-05-18T11:15:06.547Z,44.27
2019-05-18T11:17:35.364Z,42.80
2019-05-18T11:20:06.193Z,39.50
2019-05-18T11:22:35.083Z,42.43
2019-05-18T11:25:04.668Z,43.83
2019-05-18T11:27:33.491Z,43.67
2019-05-18T11:30:02.740Z,44.43
2019-05-18T11:32:31.748Z,47.03
2019-05-18T11:35:00.539Z,45.13
2019-05-18T11:37:29.449Z,42.50
2019-05-18T11:39:58.341Z,45.33
2019-05-18T11:42:27.132Z,46.67
2019-05-18T11:44:56.020Z,46.03
2019-05-18T11:47:24.810Z,46.67
2019-05-18T11:49:53.661Z,49.37
2019-05-18T11:52:22.473Z,50.47
2019-05-18T11:54:51.288Z,47.60
2019-05-18T11:57:20.072Z,48.00
2019-05-18T11:59:49.159Z,49.63
2019-05-18T12:02:18.023Z,49.67
2019-05-18T12:04:48.738Z,48.77
2019-05-18T12:07:17.286Z,48.53
2019-05-18T12:09:46.253Z,49.00
2019-05-18T12:12:15.245Z,49.03
2019-05-18T12:14:44.237Z,48.43
2019-05-18T12:17:13.232Z,47.53
2019-05-18T12:19:42.122Z,46.73
2019-05-18T12:22:11.321Z,47.23
2019-05-18T12:24:40.211Z,47.73
2019-05-18T12:27:09.201Z,48.90
2019-05-18T12:29:38.008Z,47.07
2019-05-18T12:32:06.982Z,45.87
2019-05-18T12:34:35.763Z,43.50
2019-05-18T12:37:04.641Z,42.10
2019-05-18T12:39:33.552Z,46.50
2019-05-18T12:42:02.440Z,43.43
2019-05-18T12:44:31.433Z,44.63
2019-05-18T12:47:00.350Z,45.27
2019-05-18T12:49:29.213Z,43.70
2019-05-18T12:51:58.104Z,43.93
2019-05-18T12:54:29.536Z,40.63
2019-05-18T12:56:57.431Z,43.87
2019-05-18T12:59:26.415Z,46.47
2019-05-18T13:01:55.203Z,44.17
2019-05-18T13:04:23.948Z,46.43
2019-05-18T13:06:52.982Z,44.87
2019-05-18T13:09:23.697Z,45.63
2019-05-18T13:11:52.503Z,45.43
2019-05-18T13:14:21.394Z,47.83
2019-05-18T13:16:50.181Z,44.87
2019-05-18T13:19:18.985Z,46.27
2019-05-18T13:21:47.826Z,44.47
2019-05-18T13:24:16.624Z,47.07
2019-05-18T13:26:45.516Z,47.70
2019-05-18T13:29:14.430Z,48.57
2019-05-18T13:31:43.421Z,47.07
2019-05-18T13:34:12.315Z,45.27
2019-05-18T13:36:41.308Z,48.67
2019-05-18T13:39:10.178Z,46.33
2019-05-18T13:41:39.068Z,45.00
2019-05-18T13:44:07.980Z,48.20
2019-05-18T13:46:36.866Z,48.40
2019-05-18T13:49:05.962Z,47.73
2019-05-18T13:51:34.834Z,48.43
2019-05-18T13:54:03.649Z,50.00
2019-05-18T13:56:32.736Z,48.97
2019-05-18T13:59:01.736Z,49.80
2019-05-18T14:01:30.483Z,51.43
2019-05-18T14:03:59.507Z,49.77
2019-05-18T14:06:28.376Z,51.87
2019-05-18T14:08:57.164Z,51.73
2019-05-18T14:11:26.075Z,51.27
2019-05-18T14:13:55.153Z,49.47
2019-05-18T14:16:24.064Z,48.40
2019-05-18T14:18:52.849Z,52.73
2019-05-18T14:21:21.641Z,49.03
2019-05-18T14:23:50.631Z,48.57
2019-05-18T14:26:19.522Z,48.63
2019-05-18T14:28:48.411Z,51.73
2019-05-18T14:31:17.287Z,52.07
2019-05-18T14:33:46.293Z,51.20
2019-05-18T14:36:15.184Z,46.90
2019-05-18T14:38:44.076Z,52.23
2019-05-18T14:41:13.014Z,53.27
2019-05-18T14:43:42.063Z,51.23
2019-05-18T14:46:16.901Z,50.10
2019-05-18T14:48:51.533Z,49.90
2019-05-18T14:51:20.414Z,48.90
2019-05-18T14:53:49.402Z,47.83
2019-05-18T14:56:18.269Z,48.63
2019-05-18T14:58:48.203Z,49.87
2019-05-18T15:01:19.601Z,54.57
2019-05-18T15:03:51.719Z,50.93
2019-05-18T15:06:21.531Z,50.77
2019-05-18T15:08:52.963Z,49.37
2019-05-18T15:11:21.973Z,50.63
2019-05-18T15:13:53.425Z,49.53
2019-05-18T15:16:28.023Z,45.53
2019-05-18T15:18:57.968Z,48.30
2019-05-18T15:21:29.869Z,47.57
2019-05-18T15:24:01.409Z,47.67
2019-05-18T15:26:31.121Z,44.30
2019-05-18T15:29:01.113Z,47.87
2019-05-18T15:31:29.971Z,46.53
2019-05-18T15:34:00.769Z,45.33
2019-05-18T15:36:29.690Z,48.20
2019-05-18T15:38:58.919Z,48.23
2019-05-18T15:41:27.810Z,45.67
2019-05-18T15:43:57.623Z,46.47
2019-05-18T15:46:29.642Z,47.23
2019-05-18T15:48:59.857Z,47.33
2019-05-18T15:51:31.583Z,46.73
2019-05-18T15:54:01.557Z,49.03
2019-05-18T15:56:33.644Z,46.17
2019-05-18T15:59:05.511Z,48.57
2019-05-18T16:01:37.487Z,48.57
2019-05-18T16:04:07.214Z,48.67
2019-05-18T16:06:36.124Z,50.20
2019-05-18T16:09:06.686Z,50.23
2019-05-18T16:11:35.459Z,48.90
2019-05-18T16:14:07.655Z,51.90
2019-05-18T16:16:39.039Z,49.53
2019-05-18T16:19:07.819Z,47.80
2019-05-18T16:21:36.724Z,48.80
2019-05-18T16:24:05.498Z,48.37
2019-05-18T16:26:34.292Z,50.23
2019-05-18T16:29:03.129Z,46.60
2019-05-18T16:31:35.233Z,48.33
2019-05-18T16:34:04.057Z,48.70
2019-05-18T16:36:38.672Z,46.00
2019-05-18T16:39:10.210Z,46.87
2019-05-18T16:41:42.068Z,48.33
2019-05-18T16:44:10.891Z,47.03
2019-05-18T16:46:39.691Z,47.60
2019-05-18T16:49:14.420Z,49.17
2019-05-18T16:51:49.204Z,47.80
2019-05-18T16:54:17.980Z,48.37
2019-05-18T16:56:50.496Z,47.97
2019-05-18T16:59:19.328Z,49.07
2019-05-18T17:01:50.848Z,48.93
2019-05-18T17:04:20.624Z,47.40
2019-05-18T17:06:49.485Z,48.60
2019-05-18T17:09:18.345Z,50.43
2019-05-18T17:11:48.162Z,49.43
2019-05-18T17:14:17.171Z,48.83
2019-05-18T17:16:45.940Z,49.60
2019-05-18T17:19:14.712Z,46.80
2019-05-18T17:21:44.545Z,47.23
2019-05-18T17:24:13.327Z,48.10
2019-05-18T17:26:52.856Z,47.13
2019-05-18T17:29:21.719Z,45.77
2019-05-18T17:31:51.525Z,46.57
2019-05-18T17:34:20.316Z,48.13
2019-05-18T17:36:52.471Z,47.03
2019-05-18T17:39:25.279Z,47.77
2019-05-18T17:41:54.107Z,46.80
2019-05-18T17:44:23.852Z,47.60
2019-05-18T17:46:52.641Z,47.80
2019-05-18T17:49:26.871Z,48.00
2019-05-18T17:51:52.984Z,50.03
2019-05-18T17:54:21.776Z,48.23
2019-05-18T17:56:50.664Z,48.13
2019-05-18T17:59:19.451Z,46.97
2019-05-18T18:01:48.253Z,46.80
2019-05-18T18:04:17.175Z,46.50
2019-05-18T18:06:51.751Z,46.97
2019-05-18T18:09:20.540Z,44.37
2019-05-18T18:11:49.450Z,45.20
2019-05-18T18:14:18.240Z,46.53
2019-05-18T18:16:59.030Z,46.57
2019-05-18T18:19:28.810Z,47.17
2019-05-18T18:21:57.598Z,47.30
2019-05-18T18:24:26.434Z,48.20
2019-05-18T18:27:01.043Z,46.93
2019-05-18T18:29:33.060Z,47.60
2019-05-18T18:32:01.860Z,46.63
2019-05-18T18:34:30.636Z,44.20
2019-05-18T18:36:59.506Z,45.57
2019-05-18T18:39:34.091Z,45.00
2019-05-18T18:42:02.924Z,46.27
2019-05-18T18:44:34.442Z,45.57
2019-05-18T18:47:08.993Z,44.50
2019-05-18T18:49:40.860Z,45.97
2019-05-18T18:52:09.644Z,44.87
2019-05-18T18:54:44.139Z,43.80
2019-05-18T18:57:13.048Z,45.63
2019-05-18T18:59:42.834Z,45.03
2019-05-18T19:02:11.598Z,43.33
2019-05-18T19:04:43.115Z,45.13
2019-05-18T19:07:13.873Z,52.03
2019-05-18T19:09:42.667Z,48.23
2019-05-18T19:12:11.511Z,46.77
2019-05-18T19:14:40.280Z,43.10
2019-05-18T19:17:09.057Z,43.70
2019-05-18T19:19:40.105Z,44.20
2019-05-18T19:22:09.259Z,44.00
2019-05-18T19:24:38.052Z,41.47
2019-05-18T19:27:06.917Z,41.30
2019-05-18T19:29:35.682Z,42.80
2019-05-18T19:32:04.565Z,42.47
2019-05-18T19:34:39.393Z,42.23
2019-05-18T19:37:10.278Z,40.33
2019-05-18T19:39:39.067Z,43.03
2019-05-18T19:42:11.144Z,42.90
2019-05-18T19:44:39.933Z,43.30
2019-05-18T19:47:11.289Z,41.70
2019-05-18T19:49:40.117Z,43.50
2019-05-18T19:52:11.929Z,42.80
2019-05-18T19:54:40.725Z,47.23
2019-05-18T19:57:09.646Z,43.20
2019-05-18T19:59:38.388Z,41.23
2019-05-18T20:02:07.183Z,40.83
2019-05-18T20:04:36.095Z,40.97
2019-05-18T20:07:04.879Z,41.87
2019-05-18T20:09:33.676Z,39.87
2019-05-18T20:12:02.517Z,39.67
2019-05-18T20:14:34.325Z,42.20
2019-05-18T20:17:06.312Z,39.00
2019-05-18T20:19:39.365Z,39.67
2019-05-18T20:22:05.563Z,40.70
2019-05-18T20:24:34.367Z,38.57
2019-05-18T20:27:03.216Z,38.33
2019-05-18T20:29:34.611Z,40.37
2019-05-18T20:32:03.389Z,36.93
2019-05-18T20:34:32.270Z,39.40
2019-05-18T20:37:01.064Z,40.47
2019-05-18T20:39:29.848Z,38.63
2019-05-18T20:41:58.713Z,39.00
2019-05-18T20:44:30.086Z,38.23
2019-05-18T20:46:58.884Z,38.03
2019-05-18T20:49:27.737Z,39.30
2019-05-18T20:51:57.481Z,40.93
2019-05-18T20:54:26.270Z,38.27
2019-05-18T20:56:55.140Z,38.10
2019-05-18T20:59:23.945Z,38.70
2019-05-18T21:01:52.734Z,37.03
2019-05-18T21:04:21.686Z,39.77
2019-05-18T21:06:56.169Z,38.93
2019-05-18T21:09:24.958Z,40.30
2019-05-18T21:11:54.080Z,38.77
2019-05-18T21:14:23.857Z,40.67
2019-05-18T21:16:52.632Z,38.40
2019-05-18T21:19:21.657Z,37.70
2019-05-18T21:21:53.203Z,40.53
2019-05-18T21:24:21.992Z,38.63
2019-05-18T21:26:50.901Z,38.67
2019-05-18T21:29:20.663Z,39.23
2019-05-18T21:31:49.471Z,40.90
2019-05-18T21:34:21.412Z,40.47
2019-05-18T21:36:50.838Z,45.10
2019-05-18T21:39:19.604Z,41.83
2019-05-18T21:41:48.428Z,39.77
2019-05-18T21:44:17.198Z,38.67
2019-05-18T21:46:45.981Z,39.73
2019-05-18T21:49:14.839Z,39.40
2019-05-18T21:51:43.945Z,37.40
2019-05-18T21:54:12.747Z,38.63
2019-05-18T21:56:41.632Z,38.70
2019-05-18T21:59:12.176Z,38.13
2019-05-18T22:01:40.867Z,40.57
2019-05-18T22:04:09.696Z,37.77
2019-05-18T22:06:40.818Z,39.87
2019-05-18T22:09:15.457Z,40.20
2019-05-18T22:11:50.031Z,38.97
2019-05-18T22:14:18.853Z,41.23
2019-05-18T22:16:47.672Z,40.30
2019-05-18T22:19:19.059Z,39.70
2019-05-18T22:21:47.839Z,39.53
2019-05-18T22:24:16.715Z,42.57
2019-05-18T22:26:45.515Z,42.00
2019-05-18T22:29:14.320Z,43.23
2019-05-18T22:31:48.948Z,43.60
2019-05-18T22:34:17.713Z,44.77
2019-05-18T22:36:46.497Z,46.73
2019-05-18T22:39:15.352Z,46.27
2019-05-18T22:41:44.120Z,42.57
2019-05-18T22:44:12.897Z,46.47
2019-05-18T22:46:41.723Z,46.10
2019-05-18T22:49:12.540Z,44.30
2019-05-18T22:51:41.319Z,45.57
2019-05-18T22:54:10.161Z,46.77
2019-05-18T22:56:38.973Z,45.10
2019-05-18T22:59:07.804Z,45.07
2019-05-18T23:01:36.625Z,45.57
2019-05-18T23:04:05.407Z,45.47
2019-05-18T23:06:36.892Z,45.60
2019-05-18T23:09:06.444Z,44.70
2019-05-18T23:11:35.223Z,43.13
2019-05-18T23:14:06.639Z,45.77
2019-05-18T23:16:35.459Z,46.23
2019-05-18T23:19:04.340Z,42.70
2019-05-18T23:21:33.121Z,43.13
2019-05-18T23:24:01.980Z,44.43
2019-05-18T23:26:32.715Z,46.37
2019-05-18T23:29:06.851Z,46.13
2019-05-18T23:31:35.785Z,46.13
2019-05-18T23:34:04.517Z,44.97
2019-05-18T23:36:33.399Z,43.47
2019-05-18T23:39:02.186Z,43.17
2019-05-18T23:41:30.991Z,43.77
2019-05-18T23:43:59.828Z,44.87
2019-05-18T23:46:29.579Z,44.07
2019-05-18T23:49:09.989Z,44.97
2019-05-18T23:51:31.521Z,43.20
2019-05-18T23:54:00.307Z,44.23
2019-05-18T23:56:34.787Z,42.63
2019-05-18T23:59:04.743Z,43.17
